sensor_id;sensor_type;location;lat;lon;timestamp;temperature;humidity
32524;DHT22;18965;52.242;20.886;2023-07-22T00:01:04;20.20;69.30
32524;DHT22;18965;52.242;20.886;2023-07-22T00:03:43;20.10;69.60
32524;DHT22;18965;52.242;20.886;2023-07-22T00:06:13;20.10;70.00
32524;DHT22;18965;52.242;20.886;2023-07-22T00:08:45;20.10;70.00
32524;DHT22;18965;52.242;20.886;2023-07-22T00:11:11;20.00;70.30
32524;DHT22;18965;52.242;20.886;2023-07-22T00:13:37;20.00;70.40
32524;DHT22;18965;52.242;20.886;2023-07-22T00:16:02;20.00;70.60
32524;DHT22;18965;52.242;20.886;2023-07-22T00:18:42;19.90;70.80
32524;DHT22;18965;52.242;20.886;2023-07-22T00:21:08;19.90;71.20
32524;DHT22;18965;52.242;20.886;2023-07-22T00:23:34;19.80;71.20
32524;DHT22;18965;52.242;20.886;2023-07-22T00:26:02;19.90;71.50
32524;DHT22;18965;52.242;20.886;2023-07-22T00:28:31;19.80;71.70
32524;DHT22;18965;52.242;20.886;2023-07-22T00:30:57;19.80;71.80
32524;DHT22;18965;52.242;20.886;2023-07-22T00:33:23;19.80;71.90
32524;DHT22;18965;52.242;20.886;2023-07-22T00:35:56;19.70;72.10
32524;DHT22;18965;52.242;20.886;2023-07-22T00:38:22;19.70;72.10
32524;DHT22;18965;52.242;20.886;2023-07-22T00:40:51;19.70;72.40
32524;DHT22;18965;52.242;20.886;2023-07-22T00:43:17;19.70;72.50
32524;DHT22;18965;52.242;20.886;2023-07-22T00:45:42;19.70;72.60
32524;DHT22;18965;52.242;20.886;2023-07-22T00:48:09;19.70;72.80
32524;DHT22;18965;52.242;20.886;2023-07-22T00:50:35;19.70;73.00
32524;DHT22;18965;52.242;20.886;2023-07-22T00:53:01;19.60;73.00
32524;DHT22;18965;52.242;20.886;2023-07-22T00:55:47;19.70;73.20
32524;DHT22;18965;52.242;20.886;2023-07-22T00:58:13;19.60;73.50
32524;DHT22;18965;52.242;20.886;2023-07-22T01:03:34;19.60;73.90
32524;DHT22;18965;52.242;20.886;2023-07-22T01:06:00;19.60;73.90
32524;DHT22;18965;52.242;20.886;2023-07-22T01:08:26;19.60;74.10
32524;DHT22;18965;52.242;20.886;2023-07-22T01:11:01;19.60;74.20
32524;DHT22;18965;52.242;20.886;2023-07-22T01:13:31;19.60;74.50
32524;DHT22;18965;52.242;20.886;2023-07-22T01:16:00;19.60;74.30
32524;DHT22;18965;52.242;20.886;2023-07-22T01:18:25;19.50;74.50
32524;DHT22;18965;52.242;20.886;2023-07-22T01:20:54;19.50;74.50
32524;DHT22;18965;52.242;20.886;2023-07-22T01:23:26;19.50;74.70
32524;DHT22;18965;52.242;20.886;2023-07-22T01:25:52;19.50;74.70
32524;DHT22;18965;52.242;20.886;2023-07-22T01:28:21;19.50;74.80
32524;DHT22;18965;52.242;20.886;2023-07-22T01:30:47;19.50;74.80
32524;DHT22;18965;52.242;20.886;2023-07-22T01:33:24;19.40;75.00
32524;DHT22;18965;52.242;20.886;2023-07-22T01:35:50;19.40;75.20
32524;DHT22;18965;52.242;20.886;2023-07-22T01:38:27;19.40;75.10
32524;DHT22;18965;52.242;20.886;2023-07-22T01:40:55;19.40;75.30
32524;DHT22;18965;52.242;20.886;2023-07-22T01:43:21;19.40;75.10
32524;DHT22;18965;52.242;20.886;2023-07-22T01:45:50;19.40;75.10
32524;DHT22;18965;52.242;20.886;2023-07-22T01:48:15;19.40;75.30
32524;DHT22;18965;52.242;20.886;2023-07-22T01:50:42;19.40;75.30
32524;DHT22;18965;52.242;20.886;2023-07-22T01:53:16;19.40;75.30
32524;DHT22;18965;52.242;20.886;2023-07-22T01:55:44;19.40;75.40
32524;DHT22;18965;52.242;20.886;2023-07-22T01:58:10;19.40;75.40
32524;DHT22;18965;52.242;20.886;2023-07-22T02:00:36;19.40;75.40
32524;DHT22;18965;52.242;20.886;2023-07-22T02:03:11;19.30;75.30
32524;DHT22;18965;52.242;20.886;2023-07-22T02:05:37;19.30;75.30
32524;DHT22;18965;52.242;20.886;2023-07-22T02:08:02;19.30;75.30
32524;DHT22;18965;52.242;20.886;2023-07-22T02:10:28;19.20;75.50
32524;DHT22;18965;52.242;20.886;2023-07-22T02:12:54;19.20;75.50
32524;DHT22;18965;52.242;20.886;2023-07-22T02:15:19;19.20;75.60
32524;DHT22;18965;52.242;20.886;2023-07-22T02:17:47;19.20;75.70
32524;DHT22;18965;52.242;20.886;2023-07-22T02:20:13;19.10;75.80
32524;DHT22;18965;52.242;20.886;2023-07-22T02:22:39;19.10;76.00
32524;DHT22;18965;52.242;20.886;2023-07-22T02:25:05;19.10;76.00
32524;DHT22;18965;52.242;20.886;2023-07-22T02:27:32;19.10;76.20
32524;DHT22;18965;52.242;20.886;2023-07-22T02:29:57;19.10;76.30
32524;DHT22;18965;52.242;20.886;2023-07-22T02:32:23;19.10;76.40
32524;DHT22;18965;52.242;20.886;2023-07-22T02:34:49;19.10;76.50
32524;DHT22;18965;52.242;20.886;2023-07-22T02:37:14;19.10;76.60
32524;DHT22;18965;52.242;20.886;2023-07-22T02:39:40;19.10;76.60
32524;DHT22;18965;52.242;20.886;2023-07-22T02:42:06;19.00;76.70
32524;DHT22;18965;52.242;20.886;2023-07-22T02:44:32;19.00;76.90
32524;DHT22;18965;52.242;20.886;2023-07-22T02:46:57;19.00;77.10
32524;DHT22;18965;52.242;20.886;2023-07-22T02:49:23;19.00;77.10
32524;DHT22;18965;52.242;20.886;2023-07-22T02:51:49;19.00;77.20
32524;DHT22;18965;52.242;20.886;2023-07-22T02:54:15;19.00;77.30
32524;DHT22;18965;52.242;20.886;2023-07-22T02:56:41;19.00;77.30
32524;DHT22;18965;52.242;20.886;2023-07-22T02:59:06;19.00;77.30
32524;DHT22;18965;52.242;20.886;2023-07-22T03:01:34;19.00;77.50
32524;DHT22;18965;52.242;20.886;2023-07-22T03:03:59;19.00;77.60
32524;DHT22;18965;52.242;20.886;2023-07-22T03:06:25;19.00;77.60
32524;DHT22;18965;52.242;20.886;2023-07-22T03:08:51;19.00;77.70
32524;DHT22;18965;52.242;20.886;2023-07-22T03:11:19;19.00;77.70
32524;DHT22;18965;52.242;20.886;2023-07-22T03:13:45;19.00;77.80
32524;DHT22;18965;52.242;20.886;2023-07-22T03:16:11;19.00;77.90
32524;DHT22;18965;52.242;20.886;2023-07-22T03:18:36;19.00;77.80
32524;DHT22;18965;52.242;20.886;2023-07-22T03:21:05;19.00;77.70
32524;DHT22;18965;52.242;20.886;2023-07-22T03:23:30;19.00;77.80
32524;DHT22;18965;52.242;20.886;2023-07-22T03:25:56;19.00;77.80
32524;DHT22;18965;52.242;20.886;2023-07-22T03:28:22;19.00;77.90
32524;DHT22;18965;52.242;20.886;2023-07-22T03:30:48;19.10;78.00
32524;DHT22;18965;52.242;20.886;2023-07-22T03:33:14;19.10;78.10
32524;DHT22;18965;52.242;20.886;2023-07-22T03:35:40;19.10;78.20
32524;DHT22;18965;52.242;20.886;2023-07-22T03:38:05;19.10;78.30
32524;DHT22;18965;52.242;20.886;2023-07-22T03:40:31;19.10;78.40
32524;DHT22;18965;52.242;20.886;2023-07-22T03:42:58;19.20;78.50
32524;DHT22;18965;52.242;20.886;2023-07-22T03:45:24;19.20;78.50
32524;DHT22;18965;52.242;20.886;2023-07-22T03:47:56;19.30;78.60
32524;DHT22;18965;52.242;20.886;2023-07-22T03:50:22;19.30;78.60
32524;DHT22;18965;52.242;20.886;2023-07-22T03:52:47;19.40;78.50
32524;DHT22;18965;52.242;20.886;2023-07-22T03:55:13;19.40;78.50
32524;DHT22;18965;52.242;20.886;2023-07-22T03:57:39;19.50;78.40
32524;DHT22;18965;52.242;20.886;2023-07-22T04:00:06;19.50;78.20
32524;DHT22;18965;52.242;20.886;2023-07-22T04:02:34;19.60;78.20
32524;DHT22;18965;52.242;20.886;2023-07-22T04:05:00;19.60;78.00
32524;DHT22;18965;52.242;20.886;2023-07-22T04:07:26;19.70;78.00
32524;DHT22;18965;52.242;20.886;2023-07-22T04:09:51;19.70;77.90
32524;DHT22;18965;52.242;20.886;2023-07-22T04:12:17;19.70;77.80
32524;DHT22;18965;52.242;20.886;2023-07-22T04:14:43;19.70;77.70
32524;DHT22;18965;52.242;20.886;2023-07-22T04:17:09;19.70;77.70
32524;DHT22;18965;52.242;20.886;2023-07-22T04:19:34;19.70;77.60
32524;DHT22;18965;52.242;20.886;2023-07-22T04:22:01;19.80;77.70
32524;DHT22;18965;52.242;20.886;2023-07-22T04:24:32;19.80;77.70
32524;DHT22;18965;52.242;20.886;2023-07-22T04:27:01;19.80;77.70
32524;DHT22;18965;52.242;20.886;2023-07-22T04:29:27;19.80;77.60
32524;DHT22;18965;52.242;20.886;2023-07-22T04:31:58;19.80;77.50
32524;DHT22;18965;52.242;20.886;2023-07-22T04:34:27;19.80;77.50
32524;DHT22;18965;52.242;20.886;2023-07-22T04:36:53;19.80;77.40
32524;DHT22;18965;52.242;20.886;2023-07-22T04:39:19;19.80;77.40
32524;DHT22;18965;52.242;20.886;2023-07-22T04:41:45;19.70;77.50
32524;DHT22;18965;52.242;20.886;2023-07-22T04:44:10;19.80;77.60
32524;DHT22;18965;52.242;20.886;2023-07-22T04:46:36;19.80;77.90
32524;DHT22;18965;52.242;20.886;2023-07-22T04:49:02;19.80;77.70
32524;DHT22;18965;52.242;20.886;2023-07-22T04:51:28;19.80;77.70
32524;DHT22;18965;52.242;20.886;2023-07-22T04:53:54;19.80;77.70
32524;DHT22;18965;52.242;20.886;2023-07-22T04:56:19;19.90;77.80
32524;DHT22;18965;52.242;20.886;2023-07-22T04:58:45;19.90;77.70
32524;DHT22;18965;52.242;20.886;2023-07-22T05:01:11;19.90;77.60
32524;DHT22;18965;52.242;20.886;2023-07-22T05:03:36;19.90;77.70
32524;DHT22;18965;52.242;20.886;2023-07-22T05:06:02;19.80;77.50
32524;DHT22;18965;52.242;20.886;2023-07-22T05:08:28;19.80;77.50
32524;DHT22;18965;52.242;20.886;2023-07-22T05:10:53;19.80;77.60
32524;DHT22;18965;52.242;20.886;2023-07-22T05:13:19;19.90;77.70
32524;DHT22;18965;52.242;20.886;2023-07-22T05:15:45;19.80;77.60
32524;DHT22;18965;52.242;20.886;2023-07-22T05:18:10;19.90;77.80
32524;DHT22;18965;52.242;20.886;2023-07-22T05:20:38;19.80;77.70
32524;DHT22;18965;52.242;20.886;2023-07-22T05:23:04;19.90;77.80
32524;DHT22;18965;52.242;20.886;2023-07-22T05:25:30;19.90;77.70
32524;DHT22;18965;52.242;20.886;2023-07-22T05:27:56;19.90;77.60
32524;DHT22;18965;52.242;20.886;2023-07-22T05:30:22;20.00;77.50
32524;DHT22;18965;52.242;20.886;2023-07-22T05:32:47;20.00;77.40
32524;DHT22;18965;52.242;20.886;2023-07-22T05:35:13;20.00;78.10
32524;DHT22;18965;52.242;20.886;2023-07-22T05:37:39;19.90;77.30
32524;DHT22;18965;52.242;20.886;2023-07-22T05:40:05;20.00;77.30
32524;DHT22;18965;52.242;20.886;2023-07-22T05:42:32;20.00;77.20
32524;DHT22;18965;52.242;20.886;2023-07-22T05:44:58;20.00;77.10
32524;DHT22;18965;52.242;20.886;2023-07-22T05:47:25;20.10;77.00
32524;DHT22;18965;52.242;20.886;2023-07-22T05:49:51;20.10;76.90
32524;DHT22;18965;52.242;20.886;2023-07-22T05:52:17;20.10;76.80
32524;DHT22;18965;52.242;20.886;2023-07-22T05:54:42;20.10;76.70
32524;DHT22;18965;52.242;20.886;2023-07-22T05:57:08;20.20;76.50
32524;DHT22;18965;52.242;20.886;2023-07-22T05:59:34;20.20;76.50
32524;DHT22;18965;52.242;20.886;2023-07-22T06:02:02;20.30;76.40
32524;DHT22;18965;52.242;20.886;2023-07-22T06:04:28;20.40;76.40
32524;DHT22;18965;52.242;20.886;2023-07-22T06:06:54;20.50;76.20
32524;DHT22;18965;52.242;20.886;2023-07-22T06:09:19;20.50;76.60
32524;DHT22;18965;52.242;20.886;2023-07-22T06:11:46;20.60;75.60
32524;DHT22;18965;52.242;20.886;2023-07-22T06:14:12;20.80;75.60
32524;DHT22;18965;52.242;20.886;2023-07-22T06:16:44;21.00;75.40
32524;DHT22;18965;52.242;20.886;2023-07-22T06:19:25;21.10;75.10
32524;DHT22;18965;52.242;20.886;2023-07-22T06:21:51;21.30;74.90
32524;DHT22;18965;52.242;20.886;2023-07-22T06:24:20;21.40;74.40
32524;DHT22;18965;52.242;20.886;2023-07-22T06:26:45;21.50;74.10
32524;DHT22;18965;52.242;20.886;2023-07-22T06:29:11;21.70;73.80
32524;DHT22;18965;52.242;20.886;2023-07-22T06:31:37;22.00;73.30
32524;DHT22;18965;52.242;20.886;2023-07-22T06:34:03;22.10;72.90
32524;DHT22;18965;52.242;20.886;2023-07-22T06:36:31;22.20;72.20
32524;DHT22;18965;52.242;20.886;2023-07-22T06:38:57;22.30;71.70
32524;DHT22;18965;52.242;20.886;2023-07-22T06:41:23;22.30;71.10
32524;DHT22;18965;52.242;20.886;2023-07-22T06:43:50;22.40;70.70
32524;DHT22;18965;52.242;20.886;2023-07-22T06:46:16;22.50;70.40
32524;DHT22;18965;52.242;20.886;2023-07-22T06:48:41;22.60;69.90
32524;DHT22;18965;52.242;20.886;2023-07-22T06:51:07;22.60;69.40
32524;DHT22;18965;52.242;20.886;2023-07-22T06:53:33;22.70;68.80
32524;DHT22;18965;52.242;20.886;2023-07-22T06:55:59;22.80;68.30
32524;DHT22;18965;52.242;20.886;2023-07-22T06:58:25;22.90;68.10
32524;DHT22;18965;52.242;20.886;2023-07-22T07:00:55;23.00;67.80
32524;DHT22;18965;52.242;20.886;2023-07-22T07:03:30;23.10;67.30
32524;DHT22;18965;52.242;20.886;2023-07-22T07:05:56;23.10;66.60
32524;DHT22;18965;52.242;20.886;2023-07-22T07:08:23;23.20;66.20
32524;DHT22;18965;52.242;20.886;2023-07-22T07:10:49;23.20;65.70
32524;DHT22;18965;52.242;20.886;2023-07-22T07:13:15;23.30;65.10
32524;DHT22;18965;52.242;20.886;2023-07-22T07:15:41;23.30;64.80
32524;DHT22;18965;52.242;20.886;2023-07-22T07:18:07;23.30;64.30
32524;DHT22;18965;52.242;20.886;2023-07-22T07:20:32;23.30;64.00
32524;DHT22;18965;52.242;20.886;2023-07-22T07:22:58;23.30;64.00
32524;DHT22;18965;52.242;20.886;2023-07-22T07:25:24;23.40;64.00
32524;DHT22;18965;52.242;20.886;2023-07-22T07:27:49;23.40;63.70
32524;DHT22;18965;52.242;20.886;2023-07-22T07:30:15;23.60;63.50
